sensor_id;sensor_type;location;lat;lon;timestamp;temperature;humidity
24645;DHT22;12780;45.502;9.146;2022-11-20T00:01:22;9.90;99.90
24645;DHT22;12780;45.502;9.146;2022-11-20T00:03:48;9.90;99.90
24645;DHT22;12780;45.502;9.146;2022-11-20T00:06:16;9.90;99.90
24645;DHT22;12780;45.502;9.146;2022-11-20T00:08:42;9.90;99.90
24645;DHT22;12780;45.502;9.146;2022-11-20T00:13:42;9.80;99.90
24645;DHT22;12780;45.502;9.146;2022-11-20T00:16:10;9.70;99.90
24645;DHT22;12780;45.502;9.146;2022-11-20T00:18:37;9.80;99.90
24645;DHT22;12780;45.502;9.146;2022-11-20T00:21:04;9.80;99.90
24645;DHT22;12780;45.502;9.146;2022-11-20T00:23:29;9.80;99.90
24645;DHT22;12780;45.502;9.146;2022-11-20T00:25:55;9.80;99.90
24645;DHT22;12780;45.502;9.146;2022-11-20T00:28:21;9.80;99.90
24645;DHT22;12780;45.502;9.146;2022-11-20T00:30:46;9.70;99.90
24645;DHT22;12780;45.502;9.146;2022-11-20T00:33:12;9.70;99.90
24645;DHT22;12780;45.502;9.146;2022-11-20T00:35:38;9.70;99.90
24645;DHT22;12780;45.502;9.146;2022-11-20T00:38:03;9.60;99.90
24645;DHT22;12780;45.502;9.146;2022-11-20T00:40:29;9.60;99.90
24645;DHT22;12780;45.502;9.146;2022-11-20T00:42:55;9.60;99.90
24645;DHT22;12780;45.502;9.146;2022-11-20T00:45:20;9.60;99.90
24645;DHT22;12780;45.502;9.146;2022-11-20T00:47:46;9.50;99.90
24645;DHT22;12780;45.502;9.146;2022-11-20T00:50:11;9.60;99.90
24645;DHT22;12780;45.502;9.146;2022-11-20T00:52:37;9.50;99.90
24645;DHT22;12780;45.502;9.146;2022-11-20T00:55:03;9.50;99.90
24645;DHT22;12780;45.502;9.146;2022-11-20T00:57:28;9.50;99.90
24645;DHT22;12780;45.502;9.146;2022-11-20T00:59:54;9.50;99.90
24645;DHT22;12780;45.502;9.146;2022-11-20T01:02:20;9.40;99.90
24645;DHT22;12780;45.502;9.146;2022-11-20T01:04:45;9.40;99.90
24645;DHT22;12780;45.502;9.146;2022-11-20T01:07:11;9.40;99.90
24645;DHT22;12780;45.502;9.146;2022-11-20T01:09:36;9.30;99.90
24645;DHT22;12780;45.502;9.146;2022-11-20T01:12:02;9.20;99.90
24645;DHT22;12780;45.502;9.146;2022-11-20T01:14:28;9.10;99.90
24645;DHT22;12780;45.502;9.146;2022-11-20T01:16:54;9.00;99.90
24645;DHT22;12780;45.502;9.146;2022-11-20T01:19:21;9.00;99.90
24645;DHT22;12780;45.502;9.146;2022-11-20T01:21:51;8.90;99.90
24645;DHT22;12780;45.502;9.146;2022-11-20T01:24:18;9.20;99.90
24645;DHT22;12780;45.502;9.146;2022-11-20T01:26:47;9.10;99.90
24645;DHT22;12780;45.502;9.146;2022-11-20T01:29:23;9.10;99.90
24645;DHT22;12780;45.502;9.146;2022-11-20T01:31:49;9.10;99.90
24645;DHT22;12780;45.502;9.146;2022-11-20T01:34:19;9.10;99.90
24645;DHT22;12780;45.502;9.146;2022-11-20T01:36:46;9.20;99.90
24645;DHT22;12780;45.502;9.146;2022-11-20T01:39:22;9.10;99.90
24645;DHT22;12780;45.502;9.146;2022-11-20T01:41:49;9.10;99.90
24645;DHT22;12780;45.502;9.146;2022-11-20T01:44:45;9.10;99.90
24645;DHT22;12780;45.502;9.146;2022-11-20T01:47:14;9.10;99.90
24645;DHT22;12780;45.502;9.146;2022-11-20T01:49:50;9.10;99.90
24645;DHT22;12780;45.502;9.146;2022-11-20T01:52:23;9.10;99.90
24645;DHT22;12780;45.502;9.146;2022-11-20T01:54:56;9.10;99.90
24645;DHT22;12780;45.502;9.146;2022-11-20T01:57:25;9.10;99.90
24645;DHT22;12780;45.502;9.146;2022-11-20T02:00:00;9.00;99.90
24645;DHT22;12780;45.502;9.146;2022-11-20T02:02:27;9.00;99.90
24645;DHT22;12780;45.502;9.146;2022-11-20T02:04:54;9.00;99.90
24645;DHT22;12780;45.502;9.146;2022-11-20T02:07:23;9.20;99.90
24645;DHT22;12780;45.502;9.146;2022-11-20T02:09:49;9.10;99.90
24645;DHT22;12780;45.502;9.146;2022-11-20T02:12:15;9.10;99.90
24645;DHT22;12780;45.502;9.146;2022-11-20T02:14:59;9.10;99.90
24645;DHT22;12780;45.502;9.146;2022-11-20T02:17:25;9.10;99.90
24645;DHT22;12780;45.502;9.146;2022-11-20T02:19:51;9.00;99.90
24645;DHT22;12780;45.502;9.146;2022-11-20T02:22:28;9.00;99.90
24645;DHT22;12780;45.502;9.146;2022-11-20T02:24:55;9.00;99.90
24645;DHT22;12780;45.502;9.146;2022-11-20T02:27:21;9.00;99.90
24645;DHT22;12780;45.502;9.146;2022-11-20T02:29:57;9.00;99.90
24645;DHT22;12780;45.502;9.146;2022-11-20T02:32:26;9.00;99.90
24645;DHT22;12780;45.502;9.146;2022-11-20T02:34:52;9.00;99.90
24645;DHT22;12780;45.502;9.146;2022-11-20T02:37:18;9.00;99.90
24645;DHT22;12780;45.502;9.146;2022-11-20T02:39:46;9.10;99.90
24645;DHT22;12780;45.502;9.146;2022-11-20T02:42:12;9.00;99.90
24645;DHT22;12780;45.502;9.146;2022-11-20T02:44:38;9.00;99.90
24645;DHT22;12780;45.502;9.146;2022-11-20T02:47:04;9.00;99.90
24645;DHT22;12780;45.502;9.146;2022-11-20T02:49:30;9.00;99.90
24645;DHT22;12780;45.502;9.146;2022-11-20T02:51:55;8.90;99.90
24645;DHT22;12780;45.502;9.146;2022-11-20T02:54:21;8.90;99.90
24645;DHT22;12780;45.502;9.146;2022-11-20T02:56:46;8.90;99.90
24645;DHT22;12780;45.502;9.146;2022-11-20T02:59:12;8.90;99.90
24645;DHT22;12780;45.502;9.146;2022-11-20T03:01:37;9.00;99.90
24645;DHT22;12780;45.502;9.146;2022-11-20T03:04:04;8.90;99.90
24645;DHT22;12780;45.502;9.146;2022-11-20T03:06:29;8.90;99.90
24645;DHT22;12780;45.502;9.146;2022-11-20T03:08:55;8.90;99.90
24645;DHT22;12780;45.502;9.146;2022-11-20T03:11:20;8.90;99.90
24645;DHT22;12780;45.502;9.146;2022-11-20T03:13:46;8.90;99.90
24645;DHT22;12780;45.502;9.146;2022-11-20T03:16:15;8.80;99.90
24645;DHT22;12780;45.502;9.146;2022-11-20T03:18:41;8.80;99.90
24645;DHT22;12780;45.502;9.146;2022-11-20T03:21:08;8.80;99.90
24645;DHT22;12780;45.502;9.146;2022-11-20T03:23:35;8.70;99.90
24645;DHT22;12780;45.502;9.146;2022-11-20T03:26:21;8.70;99.90
24645;DHT22;12780;45.502;9.146;2022-11-20T03:28:52;8.70;99.90
24645;DHT22;12780;45.502;9.146;2022-11-20T03:31:21;8.70;99.90
24645;DHT22;12780;45.502;9.146;2022-11-20T03:33:47;8.70;99.90
24645;DHT22;12780;45.502;9.146;2022-11-20T03:36:15;8.70;99.90
24645;DHT22;12780;45.502;9.146;2022-11-20T03:38:41;8.70;99.90
24645;DHT22;12780;45.502;9.146;2022-11-20T03:41:11;8.70;99.90
24645;DHT22;12780;45.502;9.146;2022-11-20T03:43:37;8.60;99.90
24645;DHT22;12780;45.502;9.146;2022-11-20T03:46:04;8.70;99.90
24645;DHT22;12780;45.502;9.146;2022-11-20T03:48:30;8.60;99.90
24645;DHT22;12780;45.502;9.146;2022-11-20T03:51:15;8.60;99.90
24645;DHT22;12780;45.502;9.146;2022-11-20T03:53:44;8.60;99.90
24645;DHT22;12780;45.502;9.146;2022-11-20T03:56:11;8.60;99.90
24645;DHT22;12780;45.502;9.146;2022-11-20T03:58:38;8.50;99.90
24645;DHT22;12780;45.502;9.146;2022-11-20T04:01:12;8.40;99.90
24645;DHT22;12780;45.502;9.146;2022-11-20T04:03:39;8.50;99.90
24645;DHT22;12780;45.502;9.146;2022-11-20T04:06:08;8.50;99.90
24645;DHT22;12780;45.502;9.146;2022-11-20T04:08:35;8.50;99.90
24645;DHT22;12780;45.502;9.146;2022-11-20T04:13:39;8.50;99.90
24645;DHT22;12780;45.502;9.146;2022-11-20T04:16:06;8.50;99.90
24645;DHT22;12780;45.502;9.146;2022-11-20T04:18:32;8.60;99.90
24645;DHT22;12780;45.502;9.146;2022-11-20T04:20:59;8.50;99.90
24645;DHT22;12780;45.502;9.146;2022-11-20T04:23:25;8.50;99.90
24645;DHT22;12780;45.502;9.146;2022-11-20T04:25:51;8.50;99.90
24645;DHT22;12780;45.502;9.146;2022-11-20T04:28:17;8.50;99.90
24645;DHT22;12780;45.502;9.146;2022-11-20T04:30:42;8.50;99.90
24645;DHT22;12780;45.502;9.146;2022-11-20T04:33:08;8.50;99.90
24645;DHT22;12780;45.502;9.146;2022-11-20T04:35:34;8.40;99.90
24645;DHT22;12780;45.502;9.146;2022-11-20T04:38:00;8.40;99.90
24645;DHT22;12780;45.502;9.146;2022-11-20T04:40:27;8.40;99.90
24645;DHT22;12780;45.502;9.146;2022-11-20T04:42:52;8.50;99.90
24645;DHT22;12780;45.502;9.146;2022-11-20T04:45:18;8.30;99.90
24645;DHT22;12780;45.502;9.146;2022-11-20T04:47:43;8.40;99.90
24645;DHT22;12780;45.502;9.146;2022-11-20T04:50:09;8.40;99.90
24645;DHT22;12780;45.502;9.146;2022-11-20T04:52:34;8.40;99.90
24645;DHT22;12780;45.502;9.146;2022-11-20T04:55:00;8.40;99.90
24645;DHT22;12780;45.502;9.146;2022-11-20T04:57:26;8.40;99.90
24645;DHT22;12780;45.502;9.146;2022-11-20T04:59:51;8.40;99.90
24645;DHT22;12780;45.502;9.146;2022-11-20T05:02:17;8.40;99.90
24645;DHT22;12780;45.502;9.146;2022-11-20T05:04:42;8.40;99.90
24645;DHT22;12780;45.502;9.146;2022-11-20T05:07:08;8.30;99.90
24645;DHT22;12780;45.502;9.146;2022-11-20T05:09:33;8.50;99.90
24645;DHT22;12780;45.502;9.146;2022-11-20T05:11:59;8.30;99.90
24645;DHT22;12780;45.502;9.146;2022-11-20T05:14:25;8.40;99.90
24645;DHT22;12780;45.502;9.146;2022-11-20T05:16:50;8.40;99.90
24645;DHT22;12780;45.502;9.146;2022-11-20T05:19:16;8.30;99.90
24645;DHT22;12780;45.502;9.146;2022-11-20T05:21:41;8.30;99.90
24645;DHT22;12780;45.502;9.146;2022-11-20T05:24:07;8.30;99.90
24645;DHT22;12780;45.502;9.146;2022-11-20T05:26:32;8.20;99.90
24645;DHT22;12780;45.502;9.146;2022-11-20T05:28:58;8.20;99.90
24645;DHT22;12780;45.502;9.146;2022-11-20T05:31:24;8.20;99.90
24645;DHT22;12780;45.502;9.146;2022-11-20T05:33:51;8.20;99.90
24645;DHT22;12780;45.502;9.146;2022-11-20T05:36:17;8.30;99.90
24645;DHT22;12780;45.502;9.146;2022-11-20T05:38:43;8.20;99.90
24645;DHT22;12780;45.502;9.146;2022-11-20T05:41:17;8.20;99.90
24645;DHT22;12780;45.502;9.146;2022-11-20T05:43:45;8.20;99.90
24645;DHT22;12780;45.502;9.146;2022-11-20T05:46:13;8.10;99.90
24645;DHT22;12780;45.502;9.146;2022-11-20T05:48:40;8.10;99.90
24645;DHT22;12780;45.502;9.146;2022-11-20T05:51:08;8.10;99.90
24645;DHT22;12780;45.502;9.146;2022-11-20T05:53:35;8.10;99.90
24645;DHT22;12780;45.502;9.146;2022-11-20T05:56:03;8.20;99.90
24645;DHT22;12780;45.502;9.146;2022-11-20T05:58:30;8.20;99.90
24645;DHT22;12780;45.502;9.146;2022-11-20T06:01:23;8.10;99.90
24645;DHT22;12780;45.502;9.146;2022-11-20T06:03:50;8.10;99.90
24645;DHT22;12780;45.502;9.146;2022-11-20T06:06:16;8.10;99.90
24645;DHT22;12780;45.502;9.146;2022-11-20T06:08:43;8.10;99.90
24645;DHT22;12780;45.502;9.146;2022-11-20T06:11:11;8.00;99.90
24645;DHT22;12780;45.502;9.146;2022-11-20T06:13:37;8.00;99.90
24645;DHT22;12780;45.502;9.146;2022-11-20T06:16:03;8.00;99.90
24645;DHT22;12780;45.502;9.146;2022-11-20T06:18:29;8.00;99.90
24645;DHT22;12780;45.502;9.146;2022-11-20T06:21:24;8.00;99.90
24645;DHT22;12780;45.502;9.146;2022-11-20T06:23:51;8.00;99.90
24645;DHT22;12780;45.502;9.146;2022-11-20T06:26:23;8.00;99.90
24645;DHT22;12780;45.502;9.146;2022-11-20T06:28:49;8.00;99.90
24645;DHT22;12780;45.502;9.146;2022-11-20T06:31:17;8.10;99.90
24645;DHT22;12780;45.502;9.146;2022-11-20T06:33:43;8.00;99.90
24645;DHT22;12780;45.502;9.146;2022-11-20T06:36:11;8.10;99.90
24645;DHT22;12780;45.502;9.146;2022-11-20T06:38:38;8.10;99.90
24645;DHT22;12780;45.502;9.146;2022-11-20T06:41:11;8.10;99.90
24645;DHT22;12780;45.502;9.146;2022-11-20T06:43:37;8.00;99.90
24645;DHT22;12780;45.502;9.146;2022-11-20T06:46:03;8.10;99.90
24645;DHT22;12780;45.502;9.146;2022-11-20T06:48:29;8.00;99.90
24645;DHT22;12780;45.502;9.146;2022-11-20T06:50:55;8.00;99.90
24645;DHT22;12780;45.502;9.146;2022-11-20T06:53:21;8.00;99.90
24645;DHT22;12780;45.502;9.146;2022-11-20T06:55:48;8.00;99.90
24645;DHT22;12780;45.502;9.146;2022-11-20T06:58:14;7.90;99.90
24645;DHT22;12780;45.502;9.146;2022-11-20T07:00:40;7.90;99.90
24645;DHT22;12780;45.502;9.146;2022-11-20T07:03:09;8.00;99.90
24645;DHT22;12780;45.502;9.146;2022-11-20T07:05:35;8.00;99.90
24645;DHT22;12780;45.502;9.146;2022-11-20T07:08:02;8.00;99.90
24645;DHT22;12780;45.502;9.146;2022-11-20T07:10:27;8.00;99.90
24645;DHT22;12780;45.502;9.146;2022-11-20T07:12:53;8.00;99.90
24645;DHT22;12780;45.502;9.146;2022-11-20T07:15:21;8.00;99.90
24645;DHT22;12780;45.502;9.146;2022-11-20T07:17:47;8.10;99.90
24645;DHT22;12780;45.502;9.146;2022-11-20T07:20:13;8.10;99.90
24645;DHT22;12780;45.502;9.146;2022-11-20T07:22:39;8.10;99.90
24645;DHT22;12780;45.502;9.146;2022-11-20T07:25:05;8.10;99.90
24645;DHT22;12780;45.502;9.146;2022-11-20T07:27:31;8.10;99.90
24645;DHT22;12780;45.502;9.146;2022-11-20T07:29:56;8.20;99.90
24645;DHT22;12780;45.502;9.146;2022-11-20T07:32:22;8.20;99.90
24645;DHT22;12780;45.502;9.146;2022-11-20T07:34:48;8.20;99.90
24645;DHT22;12780;45.502;9.146;2022-11-20T07:37:14;8.30;99.90
24645;DHT22;12780;45.502;9.146;2022-11-20T07:39:40;8.40;99.90
24645;DHT22;12780;45.502;9.146;2022-11-20T07:42:09;8.40;99.90
24645;DHT22;12780;45.502;9.146;2022-11-20T07:44:35;8.50;99.90
24645;DHT22;12780;45.502;9.146;2022-11-20T07:47:01;8.50;99.90
24645;DHT22;12780;45.502;9.146;2022-11-20T07:49:26;8.60;99.90
24645;DHT22;12780;45.502;9.146;2022-11-20T07:51:52;8.60;99.90
24645;DHT22;12780;45.502;9.146;2022-11-20T07:54:21;8.80;99.90
24645;DHT22;12780;45.502;9.146;2022-11-20T07:56:48;8.70;99.90
24645;DHT22;12780;45.502;9.146;2022-11-20T07:59:13;8.80;99.90
24645;DHT22;12780;45.502;9.146;2022-11-20T08:01:39;8.80;99.90
24645;DHT22;12780;45.502;9.146;2022-11-20T08:04:05;8.90;99.90
24645;DHT22;12780;45.502;9.146;2022-11-20T08:06:31;8.90;99.90
24645;DHT22;12780;45.502;9.146;2022-11-20T08:08:56;9.10;99.90
24645;DHT22;12780;45.502;9.146;2022-11-20T08:11:22;9.10;99.90
24645;DHT22;12780;45.502;9.146;2022-11-20T08:14:06;9.10;99.90
24645;DHT22;12780;45.502;9.146;2022-11-20T08:16:41;9.20;99.90
24645;DHT22;12780;45.502;9.146;2022-11-20T08:19:08;9.20;99.90
24645;DHT22;12780;45.502;9.146;2022-11-20T08:21:33;9.30;99.90
24645;DHT22;12780;45.502;9.146;2022-11-20T08:23:59;9.40;99.90
24645;DHT22;12780;45.502;9.146;2022-11-20T08:26:25;9.60;99.90
24645;DHT22;12780;45.502;9.146;2022-11-20T08:28:56;9.60;99.90
24645;DHT22;12780;45.502;9.146;2022-11-20T08:31:25;9.70;99.90
24645;DHT22;12780;45.502;9.146;2022-11-20T08:33:51;9.80;99.90
24645;DHT22;12780;45.502;9.146;2022-11-20T08:36:18;9.90;99.90
24645;DHT22;12780;45.502;9.146;2022-11-20T08:38:51;10.00;99.90
24645;DHT22;12780;45.502;9.146;2022-11-20T08:41:17;10.10;99.90
24645;DHT22;12780;45.502;9.146;2022-11-20T08:43:50;10.20;99.90
24645;DHT22;12780;45.502;9.146;2022-11-20T08:46:16;10.30;99.90
24645;DHT22;12780;45.502;9.146;2022-11-20T08:48:42;10.20;99.90
24645;DHT22;12780;45.502;9.146;2022-11-20T08:51:08;10.40;99.90
24645;DHT22;12780;45.502;9.146;2022-11-20T08:53:33;10.50;99.90
24645;DHT22;12780;45.502;9.146;2022-11-20T08:55:59;10.50;99.90
24645;DHT22;12780;45.502;9.146;2022-11-20T08:58:25;10.60;99.90
24645;DHT22;12780;45.502;9.146;2022-11-20T09:00:51;10.70;99.90
24645;DHT22;12780;45.502;9.146;2022-11-20T09:03:17;10.70;99.90
24645;DHT22;12780;45.502;9.146;2022-11-20T09:05:42;10.70;99.90
24645;DHT22;12780;45.502;9.146;2022-11-20T09:08:08;10.80;99.90
24645;DHT22;12780;45.502;9.146;2022-11-20T09:10:34;10.90;99.90
24645;DHT22;12780;45.502;9.146;2022-11-20T09:12:59;11.00;99.90
24645;DHT22;12780;45.502;9.146;2022-11-20T09:15:25;11.00;99.90
24645;DHT22;12780;45.502;9.146;2022-11-20T09:17:59;11.10;99.90
24645;DHT22;12780;45.502;9.146;2022-11-20T09:20:26;11.20;99.90
24645;DHT22;12780;45.502;9.146;2022-11-20T09:22:52;11.20;99.90
24645;DHT22;12780;45.502;9.146;2022-11-20T09:25:17;11.30;99.90
24645;DHT22;12780;45.502;9.146;2022-11-20T09:27:43;11.30;99.90
24645;DHT22;12780;45.502;9.146;2022-11-20T09:30:12;11.50;99.90
24645;DHT22;12780;45.502;9.146;2022-11-20T09:32:42;11.40;99.90
24645;DHT22;12780;45.502;9.146;2022-11-20T09:35:08;11.50;99.90
24645;DHT22;12780;45.502;9.146;2022-11-20T09:37:35;11.50;99.90
24645;DHT22;12780;45.502;9.146;2022-11-20T09:40:00;11.50;99.90
24645;DHT22;12780;45.502;9.146;2022-11-20T09:51:16;11.70;99.90
24645;DHT22;12780;45.502;9.146;2022-11-20T09:53:56;11.80;99.90
24645;DHT22;12780;45.502;9.146;2022-11-20T09:56:25;11.80;99.90
24645;DHT22;12780;45.502;9.146;2022-11-20T09:58:52;11.80;99.90
24645;DHT22;12780;45.502;9.146;2022-11-20T10:01:21;11.90;99.90
24645;DHT22;12780;45.502;9.146;2022-11-20T10:09:32;12.10;99.90
24645;DHT22;12780;45.502;9.146;2022-11-20T10:12:20;12.10;99.90
24645;DHT22;12780;45.502;9.146;2022-11-20T10:15:13;12.20;99.90
24645;DHT22;12780;45.502;9.146;2022-11-20T10:18:04;12.30;99.90
24645;DHT22;12780;45.502;9.146;2022-11-20T10:20:41;12.40;99.90
24645;DHT22;12780;45.502;9.146;2022-11-20T10:31:40;12.60;99.90
24645;DHT22;12780;45.502;9.146;2022-11-20T10:37:08;12.70;99.90
24645;DHT22;12780;45.502;9.146;2022-11-20T10:42:11;12.90;99.90
24645;DHT22;12780;45.502;9.146;2022-11-20T10:44:42;12.90;99.90
24645;DHT22;12780;45.502;9.146;2022-11-20T10:47:27;13.00;99.90
24645;DHT22;12780;45.502;9.146;2022-11-20T10:49:55;13.00;99.90
24645;DHT22;12780;45.502;9.146;2022-11-20T10:52:28;13.00;99.90
24645;DHT22;12780;45.502;9.146;2022-11-20T10:55:23;13.10;99.90
24645;DHT22;12780;45.502;9.146;2022-11-20T10:57:55;13.20;99.90
24645;DHT22;12780;45.502;9.146;2022-11-20T11:00:24;13.20;99.90
24645;DHT22;12780;45.502;9.146;2022-11-20T11:02:51;13.20;99.90
24645;DHT22;12780;45.502;9.146;2022-11-20T11:08:38;13.30;99.90
24645;DHT22;12780;45.502;9.146;2022-11-20T11:11:24;13.40;99.90
24645;DHT22;12780;45.502;9.146;2022-11-20T11:13:51;13.40;99.90
24645;DHT22;12780;45.502;9.146;2022-11-20T11:16:24;13.40;99.90
24645;DHT22;12780;45.502;9.146;2022-11-20T11:18:51;13.40;99.90
24645;DHT22;12780;45.502;9.146;2022-11-20T11:21:24;13.50;99.90
24645;DHT22;12780;45.502;9.146;2022-11-20T11:24:00;13.50;99.90
24645;DHT22;12780;45.502;9.146;2022-11-20T11:26:26;13.50;99.90
24645;DHT22;12780;45.502;9.146;2022-11-20T11:29:03;13.50;99.90
24645;DHT22;12780;45.502;9.146;2022-11-20T11:31:31;13.50;99.90
24645;DHT22;12780;45.502;9.146;2022-11-20T11:34:11;13.60;99.90
24645;DHT22;12780;45.502;9.146;2022-11-20T11:36:37;13.50;99.90
24645;DHT22;12780;45.502;9.146;2022-11-20T11:39:04;13.50;99.90
24645;DHT22;12780;45.502;9.146;2022-11-20T11:41:34;13.40;99.90
24645;DHT22;12780;45.502;9.146;2022-11-20T11:44:15;13.40;99.90
24645;DHT22;12780;45.502;9.146;2022-11-20T11:47:01;13.40;99.90
24645;DHT22;12780;45.502;9.146;2022-11-20T11:49:27;13.50;99.90
24645;DHT22;12780;45.502;9.146;2022-11-20T11:54:46;13.60;99.90
24645;DHT22;12780;45.502;9.146;2022-11-20T12:00:16;13.70;99.90
24645;DHT22;12780;45.502;9.146;2022-11-20T12:05:30;13.90;99.90
24645;DHT22;12780;45.502;9.146;2022-11-20T12:08:09;13.80;99.90
24645;DHT22;12780;45.502;9.146;2022-11-20T12:10:53;13.90;99.90
24645;DHT22;12780;45.502;9.146;2022-11-20T12:15:48;13.80;99.90
24645;DHT22;12780;45.502;9.146;2022-11-20T12:18:21;13.70;99.90
24645;DHT22;12780;45.502;9.146;2022-11-20T12:26:15;13.60;99.90
24645;DHT22;12780;45.502;9.146;2022-11-20T12:34:40;13.70;99.90
24645;DHT22;12780;45.502;9.146;2022-11-20T12:37:18;13.70;99.90
24645;DHT22;12780;45.502;9.146;2022-11-20T12:39:54;13.70;99.90
24645;DHT22;12780;45.502;9.146;2022-11-20T12:42:49;13.50;99.90
24645;DHT22;12780;45.502;9.146;2022-11-20T12:45:58;13.60;99.90
24645;DHT22;12780;45.502;9.146;2022-11-20T12:57:24;13.50;99.90
24645;DHT22;12780;45.502;9.146;2022-11-20T13:08:29;13.50;99.90
24645;DHT22;12780;45.502;9.146;2022-11-20T13:17:19;13.60;99.90
24645;DHT22;12780;45.502;9.146;2022-11-20T13:19:52;13.60;99.90
24645;DHT22;12780;45.502;9.146;2022-11-20T13:22:26;13.60;99.90
24645;DHT22;12780;45.502;9.146;2022-11-20T13:24:52;13.70;99.90
24645;DHT22;12780;45.502;9.146;2022-11-20T13:27:23;13.70;99.90
24645;DHT22;12780;45.502;9.146;2022-11-20T13:30:13;13.70;99.90
24645;DHT22;12780;45.502;9.146;2022-11-20T13:40:30;13.80;99.90
24645;DHT22;12780;45.502;9.146;2022-11-20T13:46:02;13.80;99.90
24645;DHT22;12780;45.502;9.146;2022-11-20T13:48:45;13.80;99.90
24645;DHT22;12780;45.502;9.146;2022-11-20T13:52:08;13.80;99.90
24645;DHT22;12780;45.502;9.146;2022-11-20T13:59:40;13.80;99.90
24645;DHT22;12780;45.502;9.146;2022-11-20T14:02:16;13.80;99.90
24645;DHT22;12780;45.502;9.146;2022-11-20T14:04:46;13.80;99.90
24645;DHT22;12780;45.502;9.146;2022-11-20T14:07:13;13.80;99.90
24645;DHT22;12780;45.502;9.146;2022-11-20T14:09:48;13.80;99.90
24645;DHT22;12780;45.502;9.146;2022-11-20T14:12:19;13.80;99.90
24645;DHT22;12780;45.502;9.146;2022-11-20T14:14:50;13.80;99.90
24645;DHT22;12780;45.502;9.146;2022-11-20T14:19:50;13.80;99.90
24645;DHT22;12780;45.502;9.146;2022-11-20T14:22:24;13.80;99.90
24645;DHT22;12780;45.502;9.146;2022-11-20T14:27:51;13.90;99.90
24645;DHT22;12780;45.502;9.146;2022-11-20T14:30:23;13.90;99.90
24645;DHT22;12780;45.502;9.146;2022-11-20T14:32:49;13.90;99.90
24645;DHT22;12780;45.502;9.146;2022-11-20T14:35:28;13.80;99.90
24645;DHT22;12780;45.502;9.146;2022-11-20T14:37:55;13.80;99.90
24645;DHT22;12780;45.502;9.146;2022-11-20T14:40:32;13.80;99.90
24645;DHT22;12780;45.502;9.146;2022-11-20T14:43:00;13.80;99.90
24645;DHT22;12780;45.502;9.146;2022-11-20T14:45:26;13.80;99.90
24645;DHT22;12780;45.502;9.146;2022-11-20T14:47:55;13.80;99.90
24645;DHT22;12780;45.502;9.146;2022-11-20T14:50:25;13.80;99.90
24645;DHT22;12780;45.502;9.146;2022-11-20T14:52:59;13.80;99.90
24645;DHT22;12780;45.502;9.146;2022-11-20T14:55:31;13.70;99.90
24645;DHT22;12780;45.502;9.146;2022-11-20T14:58:03;13.70;99.90
24645;DHT22;12780;45.502;9.146;2022-11-20T15:00:30;13.70;99.90
24645;DHT22;12780;45.502;9.146;2022-11-20T15:02:56;13.70;99.90
24645;DHT22;12780;45.502;9.146;2022-11-20T15:05:25;13.70;99.90
24645;DHT22;12780;45.502;9.146;2022-11-20T15:08:05;13.70;99.90
24645;DHT22;12780;45.502;9.146;2022-11-20T15:10:31;13.70;99.90
24645;DHT22;12780;45.502;9.146;2022-11-20T15:13:05;13.70;99.90
24645;DHT22;12780;45.502;9.146;2022-11-20T15:15:49;13.60;99.90
24645;DHT22;12780;45.502;9.146;2022-11-20T15:18:36;13.60;99.90
24645;DHT22;12780;45.502;9.146;2022-11-20T15:21:05;13.50;99.90
24645;DHT22;12780;45.502;9.146;2022-11-20T15:23:34;13.50;99.90
24645;DHT22;12780;45.502;9.146;2022-11-20T15:26:00;13.40;99.90
24645;DHT22;12780;45.502;9.146;2022-11-20T15:28:35;13.40;99.90
24645;DHT22;12780;45.502;9.146;2022-11-20T15:31:03;13.40;99.90
24645;DHT22;12780;45.502;9.146;2022-11-20T15:33:29;13.30;99.90
24645;DHT22;12780;45.502;9.146;2022-11-20T15:35:55;13.30;99.90
24645;DHT22;12780;45.502;9.146;2022-11-20T15:38:21;13.20;99.90
24645;DHT22;12780;45.502;9.146;2022-11-20T15:40:47;13.20;99.90
24645;DHT22;12780;45.502;9.146;2022-11-20T15:43:12;13.20;99.90
24645;DHT22;12780;45.502;9.146;2022-11-20T15:45:42;13.10;99.90
24645;DHT22;12780;45.502;9.146;2022-11-20T15:48:19;13.10;99.90
24645;DHT22;12780;45.502;9.146;2022-11-20T15:50:59;13.00;99.90
24645;DHT22;12780;45.502;9.146;2022-11-20T15:53:26;13.00;99.90
24645;DHT22;12780;45.502;9.146;2022-11-20T15:55:53;12.90;99.90
24645;DHT22;12780;45.502;9.146;2022-11-20T15:58:18;12.80;99.90
24645;DHT22;12780;45.502;9.146;2022-11-20T16:00:44;12.80;99.90
24645;DHT22;12780;45.502;9.146;2022-11-20T16:03:15;12.80;99.90
24645;DHT22;12780;45.502;9.146;2022-11-20T16:05:41;12.80;99.90
24645;DHT22;12780;45.502;9.146;2022-11-20T16:08:07;12.70;99.90
24645;DHT22;12780;45.502;9.146;2022-11-20T16:10:32;12.70;99.90
24645;DHT22;12780;45.502;9.146;2022-11-20T16:12:58;12.50;99.90
24645;DHT22;12780;45.502;9.146;2022-11-20T16:15:44;12.50;99.90
24645;DHT22;12780;45.502;9.146;2022-11-20T16:18:16;12.40;99.90
24645;DHT22;12780;45.502;9.146;2022-11-20T16:20:43;12.40;99.90
24645;DHT22;12780;45.502;9.146;2022-11-20T16:23:09;12.30;99.90
24645;DHT22;12780;45.502;9.146;2022-11-20T16:25:34;12.30;99.90
24645;DHT22;12780;45.502;9.146;2022-11-20T16:28:00;12.20;99.90
24645;DHT22;12780;45.502;9.146;2022-11-20T16:30:26;12.20;99.90
24645;DHT22;12780;45.502;9.146;2022-11-20T16:32:51;12.10;99.90
24645;DHT22;12780;45.502;9.146;2022-11-20T16:35:17;12.10;99.90
24645;DHT22;12780;45.502;9.146;2022-11-20T16:37:43;11.90;99.90
24645;DHT22;12780;45.502;9.146;2022-11-20T16:40:10;12.10;99.90
24645;DHT22;12780;45.502;9.146;2022-11-20T16:42:36;11.90;99.90
24645;DHT22;12780;45.502;9.146;2022-11-20T16:45:03;11.90;99.90
24645;DHT22;12780;45.502;9.146;2022-11-20T16:47:33;11.90;99.90
24645;DHT22;12780;45.502;9.146;2022-11-20T16:49:59;11.80;99.90
24645;DHT22;12780;45.502;9.146;2022-11-20T16:52:24;11.80;99.90
24645;DHT22;12780;45.502;9.146;2022-11-20T16:54:50;11.70;99.90
24645;DHT22;12780;45.502;9.146;2022-11-20T16:57:16;11.70;99.90
24645;DHT22;12780;45.502;9.146;2022-11-20T16:59:41;11.80;99.90
24645;DHT22;12780;45.502;9.146;2022-11-20T17:02:08;11.70;99.90
24645;DHT22;12780;45.502;9.146;2022-11-20T17:04:34;11.60;99.90
24645;DHT22;12780;45.502;9.146;2022-11-20T17:07:00;11.50;99.90
24645;DHT22;12780;45.502;9.146;2022-11-20T17:09:27;11.60;99.90
24645;DHT22;12780;45.502;9.146;2022-11-20T17:11:52;11.50;99.90
24645;DHT22;12780;45.502;9.146;2022-11-20T17:14:18;11.50;99.90
24645;DHT22;12780;45.502;9.146;2022-11-20T17:16:44;11.40;99.90
24645;DHT22;12780;45.502;9.146;2022-11-20T17:19:10;11.40;99.90
24645;DHT22;12780;45.502;9.146;2022-11-20T17:21:36;11.40;99.90
24645;DHT22;12780;45.502;9.146;2022-11-20T17:24:05;11.40;99.90
24645;DHT22;12780;45.502;9.146;2022-11-20T17:26:31;11.40;99.90
24645;DHT22;12780;45.502;9.146;2022-11-20T17:29:03;11.40;99.90
24645;DHT22;12780;45.502;9.146;2022-11-20T17:31:31;11.30;99.90
24645;DHT22;12780;45.502;9.146;2022-11-20T17:33:57;11.30;99.90
24645;DHT22;12780;45.502;9.146;2022-11-20T17:36:25;11.40;99.90